createdAt,value
2023-02-06T00:00:50.197Z,57.93
2023-02-06T00:11:21.890Z,57.80
2023-02-06T00:21:49.486Z,57.58
2023-02-06T00:32:17.019Z,57.41
2023-02-06T00:42:44.595Z,57.69
2023-02-06T00:53:12.103Z,57.37
2023-02-06T01:03:39.649Z,57.75
2023-02-06T01:14:07.269Z,57.97
2023-02-06T01:24:34.849Z,57.98
2023-02-06T01:35:02.317Z,58.12
2023-02-06T01:45:47.685Z,57.77
2023-02-06T01:56:19.605Z,57.74
2023-02-06T02:06:52.990Z,57.83
2023-02-06T02:17:32.483Z,58.20
2023-02-06T02:28:37.310Z,58.74
2023-02-06T02:39:13.583Z,58.61
2023-02-06T02:49:43.918Z,58.41
2023-02-06T03:00:14.995Z,58.27
2023-02-06T03:10:48.174Z,58.92
2023-02-06T03:21:19.147Z,58.63
2023-02-06T03:31:51.060Z,58.62
2023-02-06T03:42:21.199Z,58.33
2023-02-06T03:52:52.432Z,58.81
2023-02-06T04:03:21.603Z,58.74
2023-02-06T04:13:49.255Z,58.67
2023-02-06T04:24:17.011Z,58.40
2023-02-06T04:34:44.505Z,58.47
2023-02-06T04:45:12.797Z,58.07
2023-02-06T04:55:40.350Z,58.05
2023-02-06T05:06:08.498Z,58.38
2023-02-06T05:16:36.146Z,58.44
2023-02-06T05:27:03.712Z,58.18
2023-02-06T05:37:31.336Z,58.35
2023-02-06T05:47:58.886Z,57.71
2023-02-06T05:58:26.572Z,58.01
2023-02-06T06:08:54.329Z,58.49
2023-02-06T06:19:22.152Z,58.26
2023-02-06T06:29:49.637Z,58.39
2023-02-06T06:40:17.424Z,58.67
2023-02-06T06:50:45.194Z,59.33
2023-02-06T07:01:12.846Z,59.70
2023-02-06T07:11:40.862Z,59.88
2023-02-06T07:22:08.540Z,59.98
2023-02-06T07:32:38.365Z,59.87
2023-02-06T07:43:08.767Z,59.76
2023-02-06T07:53:37.371Z,59.86
2023-02-06T08:04:03.885Z,60.23
2023-02-06T08:14:31.982Z,60.35
2023-02-06T08:24:59.560Z,60.05
2023-02-06T08:35:27.287Z,59.17
2023-02-06T08:45:57.586Z,58.69
2023-02-06T08:56:25.570Z,58.74
2023-02-06T09:06:53.538Z,57.75
2023-02-06T09:17:21.288Z,56.43
2023-02-06T09:27:48.848Z,55.12
2023-02-06T09:38:16.515Z,54.61
2023-02-06T09:48:45.183Z,54.04
2023-02-06T09:59:17.076Z,53.80
2023-02-06T10:09:51.983Z,53.59
2023-02-06T10:20:26.109Z,52.75
2023-02-06T10:31:08.476Z,53.55
2023-02-06T10:41:44.334Z,53.82
2023-02-06T10:52:21.111Z,52.94
2023-02-06T11:03:06.866Z,52.55
2023-02-06T11:13:39.663Z,52.40
2023-02-06T11:24:19.373Z,52.00
2023-02-06T11:34:58.215Z,52.14
2023-02-06T11:45:31.393Z,51.88
2023-02-06T11:56:08.162Z,51.96
2023-02-06T12:06:39.686Z,51.20
2023-02-06T12:17:28.171Z,51.21
2023-02-06T12:28:00.844Z,51.44
2023-02-06T12:38:38.635Z,51.51
2023-02-06T12:49:12.860Z,50.95
2023-02-06T13:00:04.063Z,51.15
2023-02-06T13:10:31.623Z,51.41
2023-02-06T13:21:19.351Z,51.07
2023-02-06T13:31:46.859Z,50.97
2023-02-06T13:42:42.233Z,51.15
2023-02-06T13:53:31.431Z,51.28
2023-02-06T14:04:01.796Z,51.51
2023-02-06T14:14:43.866Z,51.26
2023-02-06T14:25:36.243Z,51.41
2023-02-06T14:36:17.119Z,51.32
2023-02-06T14:46:44.744Z,51.26
2023-02-06T14:57:21.058Z,51.36
2023-02-06T15:07:57.642Z,51.60
2023-02-06T15:18:25.681Z,51.76
2023-02-06T15:29:00.017Z,52.04
2023-02-06T15:39:27.928Z,51.71
2023-02-06T15:50:00.630Z,52.07
2023-02-06T16:00:30.734Z,51.75
2023-02-06T16:11:01.899Z,51.51
2023-02-06T16:21:32.542Z,51.76
2023-02-06T16:32:02.899Z,51.89
2023-02-06T16:42:36.664Z,51.82
2023-02-06T16:53:04.648Z,51.84
2023-02-06T17:03:32.731Z,51.91
2023-02-06T17:14:00.259Z,52.07
2023-02-06T17:24:27.787Z,51.96
2023-02-06T17:34:58.319Z,52.39
2023-02-06T17:45:25.944Z,52.46
2023-02-06T17:55:53.438Z,53.07
2023-02-06T18:06:22.125Z,53.29
2023-02-06T18:16:48.443Z,53.38
2023-02-06T18:27:16.950Z,53.59
2023-02-06T18:37:43.351Z,53.42
2023-02-06T18:48:13.242Z,53.90
2023-02-06T18:58:40.749Z,53.78
2023-02-06T19:09:09.397Z,53.87
2023-02-06T19:19:37.035Z,54.14
2023-02-06T19:30:05.055Z,54.69
2023-02-06T19:40:32.629Z,54.88
2023-02-06T19:51:05.579Z,55.01
2023-02-06T20:01:35.530Z,54.79
2023-02-06T20:12:03.483Z,54.64
2023-02-06T20:22:31.375Z,54.88
2023-02-06T20:32:59.041Z,55.20
2023-02-06T20:43:27.257Z,55.35
2023-02-06T20:53:55.224Z,55.72
2023-02-06T21:04:23.419Z,55.91
2023-02-06T21:14:51.075Z,55.57
2023-02-06T21:25:18.779Z,55.22
2023-02-06T21:35:53.197Z,55.20
2023-02-06T21:46:21.064Z,54.98
2023-02-06T21:56:48.628Z,54.93
2023-02-06T22:07:16.167Z,55.11
2023-02-06T22:17:43.670Z,55.52
2023-02-06T22:28:11.333Z,55.76
2023-02-06T22:38:39.118Z,55.61
2023-02-06T22:49:07.762Z,55.48
2023-02-06T22:59:35.309Z,54.87
2023-02-06T23:10:02.848Z,55.33
2023-02-06T23:20:30.409Z,55.30
2023-02-06T23:30:58.080Z,55.24
2023-02-06T23:41:27.376Z,54.82
2023-02-06T23:51:54.860Z,54.81
